Time;durP1;ratioP1;P1;durP2;ratioP2;P2;SDS_P1;SDS_P2;PMS_P1;PMS_P2;Temp;Humidity;BMP_temperature;BMP_pressure;BME280_temperature;BME280_humidity;BME280_pressure;Samples;Min_cycle;Max_cycle;Signal;HPM_P1;HPM_P2
2022/05/12 00:01:54;;;;;;;;;;;;;;;20.70;56.70;100417.84;5064655;28;20284;-47
2022/05/12 00:04:20;;;;;;;;;;;;;;;20.70;57.14;100408.00;5064248;28;20461;-47
2022/05/12 00:06:45;;;;;;;;;;;;;;;20.70;57.19;100389.28;5064443;28;20440;-51
2022/05/12 00:09:10;;;;;;;;;;;;;;;20.72;57.22;100391.81;5065649;28;19920;-49
2022/05/12 00:11:36;;;;;;;;;;;;;;;20.74;57.21;100386.28;5066833;28;19990;-48
2022/05/12 00:14:01;;;;;;;;;;;;;;;20.75;57.14;100383.47;5069396;28;19920;-48
2022/05/12 00:16:27;;;;;;;;;;;;;;;20.76;57.29;100395.00;5068165;28;19978;-50
2022/05/12 00:18:52;;;;;;;;;;;;;;;20.68;57.47;100388.59;5072476;28;20272;-50
2022/05/12 00:21:17;;;;;;;;;;;;;;;20.52;58.10;100404.59;5068323;28;19923;-47
2022/05/12 00:23:56;;;;;;;;;;;;;;;20.43;57.97;100397.56;5070500;28;20551;-47
2022/05/12 00:26:21;;;;;;;;;;;;;;;20.40;58.07;100375.50;5066171;28;20023;-48
2022/05/12 00:28:47;;;;;;;;;;;;;;;20.46;57.88;100359.81;5065904;28;20003;-48
2022/05/12 00:31:12;;;;;;;;;;;;;;;20.51;57.70;100354.81;5070151;28;19916;-47
2022/05/12 00:33:37;;;;;;;;;;;;;;;20.55;57.74;100351.66;5070899;28;19935;-46
2022/05/12 00:36:02;;;;;;;;;;;;;;;20.61;58.06;100365.34;5068043;28;19924;-48
2022/05/12 00:38:28;;;;;;;;;;;;;;;20.65;58.00;100383.56;5071631;28;20375;-49
2022/05/12 00:40:53;;;;;;;;;;;;;;;20.69;57.60;100387.59;5066057;28;19940;-49
2022/05/12 00:43:39;;;;;;;;;;;;;;;20.69;57.92;100376.91;5071593;28;19924;-48
2022/05/12 00:46:05;;;;;;;;;;;;;;;20.72;57.69;100389.13;5072646;28;20388;-47
2022/05/12 00:48:31;;;;;;;;;;;;;;;20.73;57.81;100381.94;5069548;28;19932;-50
2022/05/12 00:50:56;;;;;;;;;;;;;;;20.72;57.91;100378.44;5070758;28;19926;-47
2022/05/12 00:53:22;;;;;;;;;;;;;;;20.70;57.85;100381.25;5072941;28;19920;-50
2022/05/12 00:55:47;;;;;;;;;;;;;;;20.66;57.72;100374.56;5074497;28;20341;-50
2022/05/12 00:58:16;;;;;;;;;;;;;;;20.65;57.38;100380.06;5070844;28;19920;-48
2022/05/12 01:00:42;;;;;;;;;;;;;;;20.62;57.59;100383.06;5078055;28;20015;-47
2022/05/12 01:03:09;;;;;;;;;;;;;;;20.60;57.77;100388.59;5071270;28;20028;-47
2022/05/12 01:05:34;;;;;;;;;;;;;;;20.57;57.73;100396.94;5073312;28;19929;-48
2022/05/12 01:07:59;;;;;;;;;;;;;;;20.56;57.69;100405.94;5067835;28;19929;-48
2022/05/12 01:10:26;;;;;;;;;;;;;;;20.53;57.77;100404.44;5066803;28;19921;-47
2022/05/12 01:12:51;;;;;;;;;;;;;;;20.52;57.83;100397.44;5065816;28;19983;-48
2022/05/12 01:15:19;;;;;;;;;;;;;;;20.48;57.75;100393.41;5075550;28;19960;-48
2022/05/12 01:17:45;;;;;;;;;;;;;;;20.43;57.82;100374.31;5068720;28;19920;-49
2022/05/12 01:20:11;;;;;;;;;;;;;;;20.40;57.81;100364.81;5073024;28;20443;-47
2022/05/12 01:22:55;;;;;;;;;;;;;;;20.38;58.00;100361.47;5066716;28;19972;-48
2022/05/12 01:25:22;;;;;;;;;;;;;;;20.34;57.92;100353.94;5063941;28;19972;-49
2022/05/12 01:27:48;;;;;;;;;;;;;;;20.31;58.10;100355.09;5067958;28;20298;-48
2022/05/12 01:30:15;;;;;;;;;;;;;;;20.28;58.30;100342.06;5068604;28;19924;-48
2022/05/12 01:32:40;;;;;;;;;;;;;;;20.27;58.35;100353.75;5076222;28;19917;-49
2022/05/12 01:35:06;;;;;;;;;;;;;;;20.24;58.19;100354.06;5072553;28;19939;-48
2022/05/12 01:37:31;;;;;;;;;;;;;;;20.22;58.23;100350.72;5064614;28;19916;-47
2022/05/12 01:39:57;;;;;;;;;;;;;;;20.20;58.33;100364.25;5069004;28;20358;-47
2022/05/12 01:42:22;;;;;;;;;;;;;;;20.18;58.19;100370.75;5061386;28;19925;-48
2022/05/12 01:44:48;;;;;;;;;;;;;;;20.14;58.16;100390.75;5071108;28;19936;-47
2022/05/12 01:47:13;;;;;;;;;;;;;;;20.05;58.49;100396.03;5069919;28;19931;-47
2022/05/12 01:49:39;;;;;;;;;;;;;;;19.97;58.52;100421.88;5072649;28;19929;-49
2022/05/12 01:52:04;;;;;;;;;;;;;;;19.84;59.08;100446.31;5066748;28;19923;-48
2022/05/12 01:54:30;;;;;;;;;;;;;;;19.73;59.21;100455.41;5067344;28;20303;-48
2022/05/12 01:56:55;;;;;;;;;;;;;;;19.64;59.17;100489.19;5059887;28;20021;-47
2022/05/12 01:59:21;;;;;;;;;;;;;;;19.53;59.75;100500.13;5055601;28;20018;-48
2022/05/12 02:01:47;;;;;;;;;;;;;;;19.42;59.77;100488.69;5074048;28;20365;-46
2022/05/12 02:04:12;;;;;;;;;;;;;;;19.23;60.87;100483.50;5077428;28;20054;-48
2022/05/12 02:06:38;;;;;;;;;;;;;;;19.02;61.43;100466.81;5067739;28;20303;-48
2022/05/12 02:09:04;;;;;;;;;;;;;;;18.83;61.91;100477.53;5065627;28;19969;-46
2022/05/12 02:11:29;;;;;;;;;;;;;;;18.58;62.39;100494.06;5060664;28;19975;-46
2022/05/12 02:13:55;;;;;;;;;;;;;;;18.33;63.77;100473.44;5067404;28;19971;-47
2022/05/12 02:16:22;;;;;;;12.83;8.20;;;;;;;18.11;66.98;100478.13;5067296;28;20422;-45
2022/05/12 02:18:48;;;;;;;10.65;7.38;;;;;;;17.84;67.15;100487.69;5070422;28;20032;-45
2022/05/12 02:21:13;;;;;;;14.95;7.72;;;;;;;17.68;67.44;100467.81;5064616;28;20124;-48
2022/05/12 02:23:39;;;;;;;9.57;6.88;;;;;;;17.56;67.81;100463.63;5063145;28;20039;-47
2022/05/12 02:26:04;;;;;;;8.13;6.13;;;;;;;17.51;67.46;100474.69;5066771;28;20039;-47
2022/05/12 02:28:30;;;;;;;8.85;6.47;;;;;;;17.50;67.29;100480.13;5065264;28;20040;-47
2022/05/12 02:30:55;;;;;;;9.73;6.68;;;;;;;17.51;67.35;100458.72;5070007;28;20033;-47
2022/05/12 02:33:21;;;;;;;10.05;6.32;;;;;;;17.58;67.15;100453.69;5069439;28;20081;-49
2022/05/12 02:35:47;;;;;;;7.70;6.10;;;;;;;17.61;67.29;100445.44;5062585;28;20123;-47
2022/05/12 02:38:13;;;;;;;8.45;5.88;;;;;;;17.68;66.79;100461.66;5064637;28;20112;-46
2022/05/12 02:40:39;;;;;;;15.05;5.88;;;;;;;17.72;66.29;100463.03;5064352;28;20396;-47
2022/05/12 02:43:23;;;;;;;7.80;5.63;;;;;;;17.62;66.23;100441.75;5068226;28;20032;-48
2022/05/12 02:45:53;;;;;;;7.93;5.80;;;;;;;17.62;66.31;100446.25;5062126;28;20065;-46
2022/05/12 02:48:20;;;;;;;6.97;5.03;;;;;;;17.62;66.18;100443.59;5063276;28;20396;-48
2022/05/12 02:50:46;;;;;;;7.05;6.00;;;;;;;17.55;66.42;100430.03;5073366;28;20052;-47
2022/05/12 02:53:12;;;;;;;6.60;4.93;;;;;;;17.57;66.00;100438.69;5061285;28;20087;-47
2022/05/12 02:55:38;;;;;;;10.95;5.63;;;;;;;17.65;66.10;100446.81;5073166;28;20032;-46
2022/05/12 02:58:03;;;;;;;7.65;5.78;;;;;;;17.74;65.78;100453.09;5065396;28;20032;-46
2022/05/12 03:00:29;;;;;;;11.05;5.90;;;;;;;17.83;65.70;100446.94;5067315;28;20083;-47
2022/05/12 03:02:54;;;;;;;7.55;5.95;;;;;;;17.92;65.50;100449.69;5075078;28;20115;-46
2022/05/12 03:05:19;;;;;;;11.75;6.70;;;;;;;17.98;65.35;100457.97;5069727;28;20036;-47
2022/05/12 03:07:45;;;;;;;8.38;6.93;;;;;;;18.05;65.41;100452.91;5068814;28;20061;-47
2022/05/12 03:10:11;;;;;;;7.95;7.05;;;;;;;18.10;65.51;100473.78;5070305;28;20068;-48
2022/05/12 03:12:38;;;;;;;10.73;8.20;;;;;;;18.15;65.82;100473.38;5068988;28;20462;-49
2022/05/12 03:15:04;;;;;;;11.68;8.82;;;;;;;18.17;65.92;100485.53;5061255;28;20032;-48
2022/05/12 03:17:30;;;;;;;10.93;8.70;;;;;;;18.16;65.99;100509.63;5059422;28;20055;-51
2022/05/12 03:19:55;;;;;;;11.70;7.93;;;;;;;18.11;66.03;100505.59;5067326;28;20492;-46
2022/05/12 03:22:21;;;;;;;10.00;7.03;;;;;;;18.07;65.80;100501.53;5066653;28;20392;-46
2022/05/12 03:24:46;;;;;;;10.25;6.50;;;;;;;18.03;65.77;100504.63;5066816;28;20051;-46
2022/05/12 03:27:13;;;;;;;7.70;5.57;;;;;;;18.01;65.68;100499.44;5070134;28;20097;-44
2022/05/12 03:29:39;;;;;;;7.35;5.57;;;;;;;18.02;65.63;100517.09;5063760;28;21362;-48
2022/05/12 03:32:06;;;;;;;10.65;5.25;;;;;;;18.01;65.22;100503.94;5067810;28;20029;-48
2022/05/12 03:34:32;;;;;;;9.23;5.25;;;;;;;17.97;65.11;100503.34;5068865;28;20102;-50
2022/05/12 03:36:57;;;;;;;6.70;4.45;;;;;;;17.94;64.72;100493.81;5067012;28;20074;-47
2022/05/12 03:39:24;;;;;;;6.50;3.67;;;;;;;17.90;64.42;100479.13;5070110;28;20077;-47
2022/05/12 03:41:50;;;;;;;6.28;3.65;;;;;;;17.83;64.36;100521.44;5063778;28;20519;-46
2022/05/12 03:47:00;;;;;;;4.85;3.25;;;;;;;17.77;63.72;100539.81;5070396;28;20101;-48
2022/05/12 03:49:25;;;;;;;8.02;3.25;;;;;;;17.68;63.72;100552.94;5071530;28;20024;-46
2022/05/12 03:51:51;;;;;;;6.10;3.33;;;;;;;17.65;63.58;100557.72;5061102;28;20028;-46
2022/05/12 03:54:16;;;;;;;5.25;2.95;;;;;;;17.59;63.33;100548.47;5065704;28;20427;-46
2022/05/12 03:56:43;;;;;;;4.72;2.78;;;;;;;17.58;63.20;100573.41;5063667;28;20109;-47
2022/05/12 03:59:09;;;;;;;4.18;2.85;;;;;;;17.52;62.95;100557.97;5069457;28;20399;-46
2022/05/12 04:01:34;;;;;;;5.20;2.95;;;;;;;17.47;62.97;100545.09;5060963;28;20028;-47
2022/05/12 04:04:00;;;;;;;4.57;3.08;;;;;;;17.42;63.31;100565.13;5061517;28;20044;-44
2022/05/12 04:06:26;;;;;;;4.90;3.03;;;;;;;17.36;63.42;100554.03;5061283;28;20070;-47
2022/05/12 04:08:51;;;;;;;;;;;;;;;17.32;63.47;100547.31;5067472;28;20154;-47
2022/05/12 04:11:16;;;;;;;;;;;;;;;17.24;63.43;100555.13;5065605;28;19922;-47
2022/05/12 04:13:44;;;;;;;;;;;;;;;17.19;63.36;100568.00;5060076;28;19962;-48
2022/05/12 04:16:09;;;;;;;;;;;;;;;17.15;63.23;100569.25;5067101;28;19924;-46
2022/05/12 04:18:35;;;;;;;;;;;;;;;17.06;63.73;100584.22;5065961;28;19912;-47
2022/05/12 04:21:00;;;;;;;;;;;;;;;17.03;63.47;100569.34;5062476;28;21304;-47
2022/05/12 04:23:25;;;;;;;;;;;;;;;17.02;63.38;100591.59;5065323;28;19966;-46
2022/05/12 04:25:51;;;;;;;;;;;;;;;16.98;63.46;100592.00;5065287;28;19939;-48
2022/05/12 04:28:16;;;;;;;;;;;;;;;17.02;63.34;100591.59;5062682;28;19919;-46
2022/05/12 04:30:41;;;;;;;;;;;;;;;17.06;63.14;100595.66;5064913;28;19927;-48
2022/05/12 04:35:50;;;;;;;;;;;;;;;17.10;62.98;100595.41;5065031;28;19958;-48
2022/05/12 04:38:16;;;;;;;;;;;;;;;17.09;62.69;100612.31;5071191;28;19916;-47
2022/05/12 04:40:41;;;;;;;;;;;;;;;17.10;62.46;100590.91;5063532;28;21316;-47
2022/05/12 04:43:06;;;;;;;;;;;;;;;17.03;62.78;100601.25;5065729;28;19916;-43
2022/05/12 04:45:32;;;;;;;;;;;;;;;17.03;62.75;100601.25;5070035;28;19991;-49
2022/05/12 04:47:58;;;;;;;;;;;;;;;17.05;62.54;100617.91;5065524;28;19913;-47
2022/05/12 04:50:30;;;;;;;;;;;;;;;17.01;62.65;100629.81;5074027;28;20395;-47
2022/05/12 04:52:56;;;;;;;;;;;;;;;17.03;62.60;100624.34;5065862;28;19920;-48
2022/05/12 04:55:21;;;;;;;;;;;;;;;17.01;62.73;100628.94;5067004;28;19920;-46
2022/05/12 04:57:48;;;;;;;;;;;;;;;17.04;62.45;100640.13;5068774;28;19916;-44
2022/05/12 05:00:19;;;;;;;;;;;;;;;17.06;62.30;100643.50;5067532;28;20296;-47
2022/05/12 05:02:44;;;;;;;;;;;;;;;17.10;62.21;100649.41;5061395;28;19923;-49
2022/05/12 05:05:10;;;;;;;;;;;;;;;17.06;62.45;100662.13;5064981;28;19920;-47
2022/05/12 05:07:35;;;;;;;;;;;;;;;17.09;62.36;100658.38;5076008;28;19908;-47
2022/05/12 05:10:02;;;;;;;;;;;;;;;17.01;62.65;100675.00;5074171;28;20053;-47
2022/05/12 05:12:28;;;;;;;;;;;;;;;16.91;62.79;100679.34;5073046;28;19958;-51
2022/05/12 05:14:53;;;;;;;;;;;;;;;16.90;62.47;100691.81;5069554;28;19917;-45
2022/05/12 05:17:18;;;;;;;;;;;;;;;16.86;62.36;100684.25;5072407;28;19997;-48
2022/05/12 05:19:44;;;;;;;;;;;;;;;16.91;62.18;100695.31;5073910;28;19912;-48
2022/05/12 05:22:09;;;;;;;;;;;;;;;16.87;61.89;100701.84;5068762;28;19973;-48
2022/05/12 05:24:35;;;;;;;;;;;;;;;16.83;61.71;100689.81;5067996;28;20046;-47
2022/05/12 05:27:01;;;;;;;;;;;;;;;16.73;61.33;100698.53;5072899;28;19912;-47
2022/05/12 05:29:26;;;;;;;;;;;;;;;16.73;61.35;100717.16;5072874;28;20429;-46
2022/05/12 05:31:52;;;;;;;;;;;;;;;16.68;61.31;100730.00;5071912;28;19908;-49
2022/05/12 05:34:17;;;;;;;;;;;;;;;16.66;61.29;100737.25;5068524;28;19994;-48
2022/05/12 05:36:44;;;;;;;;;;;;;;;16.64;61.13;100749.81;5072484;28;20391;-48
2022/05/12 05:39:24;;;;;;;;;;;;;;;16.68;60.90;100759.22;5074930;28;19920;-48
2022/05/12 05:41:53;;;;;;;;;;;;;;;16.61;60.37;100760.69;5073205;28;19912;-48
2022/05/12 05:44:19;;;;;;;;;;;;;;;16.61;60.53;100756.22;5073856;28;20916;-47
2022/05/12 05:46:44;;;;;;;;;;;;;;;16.61;60.42;100755.38;5069848;28;19912;-47
2022/05/12 05:49:09;;;;;;;;;;;;;;;16.57;59.89;100780.50;5071672;28;19908;-47
2022/05/12 05:54:19;;;;;;;;;;;;;;;16.46;59.89;100782.22;5072690;28;19924;-47
2022/05/12 05:56:44;;;;;;;;;;;;;;;16.46;60.03;100792.84;5064261;28;19913;-44
2022/05/12 05:59:09;;;;;;;;;;;;;;;16.48;59.86;100798.06;5065967;28;20465;-45
2022/05/12 06:01:35;;;;;;;;;;;;;;;16.52;59.56;100798.66;5071129;28;19928;-47
2022/05/12 06:04:00;;;;;;;;;;;;;;;16.52;59.14;100783.53;5071991;28;19960;-48
2022/05/12 06:06:26;;;;;;;;;;;;;;;16.38;58.91;100790.00;5074897;28;19999;-45
2022/05/12 06:08:52;;;;;;;;;;;;;;;16.40;59.12;100814.63;5073807;28;19913;-48
2022/05/12 06:11:17;;;;;;;;;;;;;;;16.41;59.18;100849.97;5074913;28;20501;-47
2022/05/12 06:13:44;;;;;;;;;;;;;;;16.45;59.14;100817.72;5068091;28;19918;-47
2022/05/12 06:16:09;;;;;;;;;;;;;;;16.48;58.90;100807.81;5075917;28;19909;-47
2022/05/12 06:18:36;;;;;;;;;;;;;;;16.51;58.82;100834.13;5077668;28;19914;-47
2022/05/12 06:21:03;;;;;;;;;;;;;;;16.56;58.63;100827.47;5072022;28;19966;-48
2022/05/12 06:23:29;;;;;;;;;;;;;;;16.55;58.45;100855.00;5073461;28;19921;-49
2022/05/12 06:25:55;;;;;;;;;;;;;;;16.53;58.30;100848.16;5071190;28;19916;-47
2022/05/12 06:28:20;;;;;;;;;;;;;;;16.51;58.45;100858.03;5074489;28;20397;-48
2022/05/12 06:30:45;;;;;;;;;;;;;;;16.56;58.37;100874.47;5072123;28;20007;-48
2022/05/12 06:33:15;;;;;;;;;;;;;;;16.64;58.24;100881.81;5085182;28;20336;-46
2022/05/12 06:35:41;;;;;;;;;;;;;;;16.64;58.10;100898.56;5077386;28;20436;-47
2022/05/12 06:38:06;;;;;;;;;;;;;;;16.68;57.86;100889.41;5070948;28;19908;-49
2022/05/12 06:40:31;;;;;;;;;;;;;;;16.69;57.87;100896.41;5070186;28;20397;-47
2022/05/12 06:42:58;;;;;;;;;;;;;;;16.66;58.33;100951.56;5074007;28;19920;-48
2022/05/12 06:45:23;;;;;;;;;;;;;;;16.60;58.86;100913.06;5069549;28;20394;-49
2022/05/12 06:47:50;;;;;;;;;;;;;;;16.48;59.52;100924.69;5070271;28;19940;-47
2022/05/12 06:50:17;;;;;;;;;;;;;;;16.38;59.87;100941.38;5073504;28;19924;-49
2022/05/12 06:52:42;;;;;;;;;;;;;;;16.23;60.83;100940.75;5071928;28;19915;-48
2022/05/12 06:55:07;;;;;;;;;;;;;;;16.09;61.20;100947.16;5070421;28;19912;-47
2022/05/12 06:57:33;;;;;;;;;;;;;;;15.96;61.60;100952.56;5068398;28;19915;-49
2022/05/12 06:59:58;;;;;;;;;;;;;;;15.92;61.86;100960.88;5073600;28;20049;-50
2022/05/12 07:02:24;;;;;;;;;;;;;;;15.88;61.98;100959.41;5068867;28;19916;-49
2022/05/12 07:04:52;;;;;;;;;;;;;;;15.85;62.08;100969.31;5065159;28;20565;-50
2022/05/12 07:07:17;;;;;;;;;;;;;;;15.87;61.89;100963.03;5068921;28;20406;-47
2022/05/12 07:09:43;;;;;;;;;;;;;;;15.87;62.12;100976.31;5072181;28;19930;-49
2022/05/12 07:12:10;;;;;;;;;;;;;;;15.89;62.08;100977.88;5071726;28;19912;-48
2022/05/12 07:14:35;;;;;;;;;;;;;;;15.93;62.23;100983.81;5071160;28;19912;-48
2022/05/12 07:17:03;;;;;;;;;;;;;;;16.02;61.76;100990.22;5072995;28;20370;-48
2022/05/12 07:19:30;;;;;;;;;;;;;;;16.10;61.51;100998.41;5064615;28;20297;-48
2022/05/12 07:27:23;;;;;;;;;;;;;;;16.31;61.34;101027.78;5073102;28;19920;-48
2022/05/12 07:29:48;;;;;;;;;;;;;;;16.36;61.06;101038.88;5073784;28;19912;-48
2022/05/12 07:32:14;;;;;;;;;;;;;;;16.34;61.21;101051.44;5070467;28;20418;-48
2022/05/12 07:34:40;;;;;;;;;;;;;;;16.32;61.16;101058.66;5074856;28;20003;-47
2022/05/12 07:37:05;;;;;;;;;;;;;;;16.33;60.96;101078.13;5072109;28;19913;-46
2022/05/12 07:39:31;;;;;;;;;;;;;;;16.33;60.83;101076.28;5070781;28;19942;-48
2022/05/12 07:41:57;;;;;;;;;;;;;;;16.19;60.88;101072.03;5068390;28;19974;-46
2022/05/12 07:44:31;;;;;;;;;;;;;;;16.15;60.73;101090.00;5069409;28;20575;-49
2022/05/12 07:46:57;;;;;;;;;;;;;;;16.13;60.31;101097.25;5069765;28;19912;-49
2022/05/12 07:49:22;;;;;;;;;;;;;;;16.06;58.22;101146.47;5069315;28;19966;-46
2022/05/12 07:51:48;;;;;;;;;;;;;;;15.98;56.83;101114.31;5069505;28;20014;-47
2022/05/12 07:54:14;;;;;;;;;;;;;;;15.89;56.62;101120.31;5068036;28;19919;-47
2022/05/12 07:56:39;;;;;;;;;;;;;;;15.94;56.00;101134.13;5071836;28;19916;-48
2022/05/12 07:59:05;;;;;;;;;;;;;;;15.99;55.66;101137.25;5066646;28;19956;-47
2022/05/12 08:01:30;;;;;;;;;;;;;;;16.00;55.38;101149.56;5075078;28;20003;-45
2022/05/12 08:03:56;;;;;;;;;;;;;;;16.05;55.35;101152.72;5069758;28;20268;-48
2022/05/12 08:06:21;;;;;;;;;;;;;;;16.04;54.70;101177.56;5069699;28;20022;-49
2022/05/12 08:08:48;;;;;;;;;;;;;;;16.00;52.77;101176.09;5071271;28;19920;-46
2022/05/12 08:11:14;;;;;;;;;;;;;;;16.00;52.62;101166.34;5068829;28;20443;-45
2022/05/12 08:13:39;;;;;;;;;;;;;;;16.06;52.96;101180.09;5072171;28;19908;-45
2022/05/12 08:16:06;;;;;;;;;;;;;;;16.09;52.94;101186.06;5070371;28;19909;-45
2022/05/12 08:18:32;;;;;;;;;;;;;;;16.20;52.58;101187.06;5073036;28;19919;-45
2022/05/12 08:20:58;;;;;;;;;;;;;;;16.29;52.72;101196.97;5071966;28;19912;-45
2022/05/12 08:23:23;;;;;;;;;;;;;;;16.41;52.66;101209.34;5072858;28;19916;-46
2022/05/12 08:25:48;;;;;;;;;;;;;;;16.41;52.27;101222.59;5072052;28;19912;-44
2022/05/12 08:28:15;;;;;;;;;;;;;;;16.38;51.72;101216.69;5070545;28;20260;-46
2022/05/12 08:30:44;;;;;;;;;;;;;;;16.38;51.73;101222.00;5071579;28;19912;-48
2022/05/12 08:33:10;;;;;;;;;;;;;;;16.39;51.86;101229.88;5073307;28;20402;-45
2022/05/12 08:35:35;;;;;;;;;;;;;;;16.42;51.92;101244.72;5066139;28;19908;-47
2022/05/12 08:38:01;;;;;;;;;;;;;;;16.43;52.08;101230.47;5074876;28;19920;-45
2022/05/12 08:40:37;;;;;;;;;;;;;;;16.49;51.81;101245.09;5072523;28;19912;-45
2022/05/12 08:43:18;;;;;;;;;;;;;;;16.42;51.27;101242.91;5068278;28;19920;-45
2022/05/12 08:45:44;;;;;;;;;;;;;;;16.50;51.38;101231.69;5069521;28;19928;-45
2022/05/12 08:48:11;;;;;;;;;;;;;;;16.61;51.48;101255.66;5071730;28;20018;-47
2022/05/12 08:50:39;;;;;;;;;;;;;;;16.70;51.06;101259.44;5073961;28;19912;-47
2022/05/12 08:53:09;;;;;;;;;;;;;;;16.76;51.21;101280.22;5074703;28;19912;-47
2022/05/12 08:55:34;;;;;;;;;;;;;;;16.70;51.30;101301.97;5077784;28;19912;-48
2022/05/12 08:58:03;;;;;;;;;;;;;;;16.56;51.35;101279.06;5073506;28;19995;-47
2022/05/12 09:00:33;;;;;;;;;;;;;;;16.56;51.38;101284.38;5072761;28;20001;-47
2022/05/12 09:03:04;;;;;;;;;;;;;;;16.60;50.79;101280.53;5070397;28;19973;-48
2022/05/12 09:05:33;;;;;;;;;;;;;;;16.58;50.60;101285.13;5073035;28;19912;-50
2022/05/12 09:07:59;;;;;;;;;;;;;;;16.53;50.48;101305.03;5077494;28;20392;-48
2022/05/12 09:10:24;;;;;;;;;;;;;;;16.51;50.08;101299.81;5075030;28;20003;-47
2022/05/12 09:12:59;;;;;;;;;;;;;;;16.54;50.32;101298.75;5074120;28;19916;-48
2022/05/12 09:15:33;;;;;;;;;;;;;;;16.60;50.02;101298.28;5074123;28;20364;-48
2022/05/12 09:18:00;;;;;;;;;;;;;;;16.53;50.34;101313.00;5071966;28;20106;-48
2022/05/12 09:20:26;;;;;;;;;;;;;;;16.53;50.91;101315.66;5071832;28;19912;-48
2022/05/12 09:22:52;;;;;;;;;;;;;;;16.61;51.13;101313.25;5075579;28;19913;-47
2022/05/12 09:25:52;;;;;;;;;;;;;;;16.61;51.15;101324.75;5071334;28;19962;-48
2022/05/12 09:28:27;;;;;;;;;;;;;;;16.70;51.23;101322.34;5074208;28;19962;-49
2022/05/12 09:30:53;;;;;;;;;;;;;;;16.76;50.73;101309.44;5073799;28;19916;-50
2022/05/12 09:33:23;;;;;;;;;;;;;;;16.76;49.67;101333.38;5070361;28;20333;-50
2022/05/12 09:35:56;;;;;;;;;;;;;;;16.62;48.66;101328.22;5068482;28;20322;-47
2022/05/12 09:38:23;;;;;;;;;;;;;;;16.54;48.75;101317.34;5072658;28;19922;-48
2022/05/12 09:40:48;;;;;;;;;;;;;;;16.49;48.36;101324.78;5072263;28;19971;-48
2022/05/12 09:43:31;;;;;;;;;;;;;;;16.60;48.93;101339.00;5072135;28;20387;-48
2022/05/12 09:46:18;;;;;;;;;;;;;;;16.65;48.11;101338.63;5069692;28;19912;-47
2022/05/12 09:48:45;;;;;;;;;;;;;;;16.69;47.63;101341.91;5076239;28;19962;-48
2022/05/12 09:51:29;;;;;;;;;;;;;;;16.79;47.72;101355.38;5074777;28;20391;-48
2022/05/12 09:54:12;;;;;;;;;;;;;;;16.88;47.60;101352.00;5072012;28;19908;-48
2022/05/12 09:56:39;;;;;;;;;;;;;;;16.92;47.68;101354.34;5069775;28;20303;-48
2022/05/12 09:59:10;;;;;;;;;;;;;;;17.03;47.46;101342.91;5069636;28;19965;-48
2022/05/12 10:01:47;;;;;;;;;;;;;;;17.14;48.00;101357.22;5071112;28;19913;-47
2022/05/12 10:09:52;;;;;;;;;;;;;;;17.29;47.32;101356.06;5072561;28;19927;-48
2022/05/12 10:12:23;;;;;;;;;;;;;;;17.35;46.99;101386.66;5071926;28;19908;-47
2022/05/12 10:14:48;;;;;;;;;;;;;;;17.43;45.97;101399.38;5073979;28;19908;-48
2022/05/12 10:17:13;;;;;;;;;;;;;;;17.35;43.91;101382.16;5074619;28;19916;-48
2022/05/12 10:19:40;;;;;;;;;;;;;;;17.27;42.93;101383.72;5072957;28;20336;-48
2022/05/12 10:22:08;;;;;;;;;;;;;;;17.17;42.93;101387.06;5069630;28;19915;-50
2022/05/12 10:24:41;;;;;;;;;;;;;;;17.26;43.84;101374.03;5071431;28;20275;-47
2022/05/12 10:27:16;;;;;;;;;;;;;;;17.35;43.86;101376.84;5067021;28;19916;-47
2022/05/12 10:29:41;;;;;;;;;;;;;;;17.46;44.15;101391.16;5070217;28;19912;-48
2022/05/12 10:32:16;;;;;;;;;;;;;;;17.47;43.32;101377.72;5070937;28;19939;-52
2022/05/12 10:34:41;;;;;;;;;;;;;;;17.55;43.56;101382.44;5073907;28;20008;-49
2022/05/12 10:37:25;;;;;;;;;;;;;;;17.65;43.57;101383.41;5074209;28;19996;-48
2022/05/12 10:40:09;;;;;;;;;;;;;;;17.77;43.83;101376.31;5069652;28;19908;-51
2022/05/12 10:42:46;;;;;;;;;;;;;;;17.85;43.45;101391.66;5074470;28;20287;-49
2022/05/12 10:45:12;;;;;;;;;;;;;;;17.83;43.54;101401.59;5072134;28;19995;-48
2022/05/12 10:47:46;;;;;;;;;;;;;;;17.77;42.77;101402.09;5074914;28;20003;-49
2022/05/12 10:50:19;;;;;;;;;;;;;;;17.82;43.04;101394.56;5071315;28;19935;-53
2022/05/12 10:52:58;;;;;;;;;;;;;;;17.93;43.14;101391.06;5077571;28;20006;-48
2022/05/12 10:55:34;;;;;;;;;;;;;;;17.96;42.58;101390.84;5072521;28;19908;-48
2022/05/12 10:58:06;;;;;;;;;;;;;;;18.03;42.56;101391.22;5067630;28;19914;-47
2022/05/12 11:00:44;;;;;;;;;;;;;;;18.07;43.13;101400.69;5068828;28;19959;-45
2022/05/12 11:03:19;;;;;;;;;;;;;;;18.13;42.85;101413.47;5070927;28;19920;-45
2022/05/12 11:05:51;;;;;;;;;;;;;;;18.15;42.26;101400.91;5073317;28;19961;-49
2022/05/12 11:08:16;;;;;;;;;;;;;;;18.20;41.59;101404.06;5068941;28;20030;-49
2022/05/12 11:10:41;;;;;;;;;;;;;;;18.21;41.81;101403.09;5067451;28;19942;-48
2022/05/12 11:13:24;;;;;;;;;;;;;;;18.16;40.48;101397.28;5070631;28;19908;-46
2022/05/12 11:15:57;;;;;;;;;;;;;;;18.18;40.78;101395.34;5073044;28;19986;-47
2022/05/12 11:18:46;;;;;;;;;;;;;;;18.22;40.65;101403.91;5068502;28;19912;-45
2022/05/12 11:21:11;;;;;;;;;;;;;;;18.27;40.68;101394.59;5066052;28;19917;-46
2022/05/12 11:23:45;;;;;;;;;;;;;;;18.35;40.22;101419.78;5069008;28;19916;-48
2022/05/12 11:26:29;;;;;;;;;;;;;;;18.41;39.09;101395.28;5059038;28;19912;-45
2022/05/12 11:32:02;;;;;;;;;;;;;;;18.75;40.34;101408.53;5070345;28;20420;-49
2022/05/12 11:34:28;;;;;;;;;;;;;;;18.84;40.10;101421.09;5069671;28;20402;-49
2022/05/12 11:36:54;;;;;;;;;;;;;;;18.88;39.85;101409.22;5065217;28;19909;-50
2022/05/12 11:39:25;;;;;;;;;;;;;;;18.87;39.62;101407.53;5066994;28;19966;-49
2022/05/12 11:42:06;;;;;;;;;;;;;;;18.81;39.39;101407.19;5070814;28;20288;-49
2022/05/12 11:44:39;;;;;;;;;;;;;;;18.74;39.00;101418.38;5066810;28;19924;-51
2022/05/12 11:47:22;;;;;;;;;;;;;;;18.66;38.39;101414.63;5068432;28;19913;-51
2022/05/12 11:49:51;;;;;;;;;;;;;;;18.67;39.17;101417.16;5066499;28;19939;-48
2022/05/12 11:52:19;;;;;;;;;;;;;;;18.72;38.50;101403.44;5068606;28;20007;-49
2022/05/12 11:55:11;;;;;;;;;;;;;;;18.78;38.54;101400.28;5068895;28;19965;-49
2022/05/12 11:57:38;;;;;;;;;;;;;;;18.83;39.06;101408.75;5054571;28;20004;-49
2022/05/12 12:00:08;;;;;;;;;;;;;;;18.82;38.95;101417.72;5063248;28;20328;-51
2022/05/12 12:02:33;;;;;;;;;;;;;;;18.82;39.32;101408.88;5067622;28;19920;-48
2022/05/12 12:04:59;;;;;;;;;;;;;;;18.87;39.17;101404.84;5068592;28;19927;-48
2022/05/12 12:07:30;;;;;;;;;;;;;;;18.93;39.36;101408.81;5062841;28;19976;-46
2022/05/12 12:09:56;;;;;;;;;;;;;;;18.99;39.26;101416.38;5066112;28;19920;-51
2022/05/12 12:12:39;;;;;;;;;;;;;;;19.04;38.33;101410.63;5069946;28;19986;-48
2022/05/12 12:15:05;;;;;;;;;;;;;;;19.08;38.73;101404.09;5068624;28;19916;-49
2022/05/12 12:17:30;;;;;;;;;;;;;;;19.16;38.70;101412.28;5068229;28;20372;-48
2022/05/12 12:19:57;;;;;;;;;;;;;;;19.21;39.00;101419.06;5068737;28;19908;-51
2022/05/12 12:22:23;;;;;;;;;;;;;;;19.27;38.64;101418.56;5066696;28;19920;-50
2022/05/12 12:24:54;;;;;;;;;;;;;;;19.35;37.66;101416.06;5067331;28;20299;-49
2022/05/12 12:27:27;;;;;;;;;;;;;;;19.47;38.02;101420.34;5063761;28;19973;-48
2022/05/12 12:29:52;;;;;;;;;;;;;;;19.59;38.17;101414.94;5069537;28;20311;-51
2022/05/12 12:32:24;;;;;;;;;;;;;;;19.66;37.56;101429.47;5070083;28;19916;-50
2022/05/12 12:34:51;;;;;;;;;;;;;;;19.46;36.02;101425.84;5068269;28;19917;-51
2022/05/12 12:37:40;;;;;;;;;;;;;;;19.41;36.60;101439.56;5074870;28;19913;-49
2022/05/12 12:40:26;;;;;;;;;;;;;;;19.30;36.58;101423.59;5063815;28;19939;-49
2022/05/12 12:42:52;;;;;;;;;;;;;;;19.40;37.27;101451.22;5065535;28;19916;-49
2022/05/12 12:45:19;;;;;;;;;;;;;;;19.46;36.46;101445.34;5074702;28;19920;-49
2022/05/12 12:48:01;;;;;;;;;;;;;;;19.50;37.02;101427.28;5073100;28;19916;-50
2022/05/12 12:50:41;;;;;;;;;;;;;;;19.59;37.22;101433.63;5074073;28;20372;-48
2022/05/12 12:53:10;;;;;;;;;;;;;;;19.58;36.82;101442.63;5072930;28;20010;-49